Watson, IL (62473)

10:56 PM CDT on August 27, 2014 (GMT -0500)
Southwinds Sub | Change Station
CLOSE
Current Station
Personal Weather Station
Location: Effingham, IL
Elevation: 574 ft
Nearby Weather Stations

Elev 574 ft 39.09 °N, 88.54 °W | Updated 1 second ago

Rain
Rain
72.9 °F
Feels Like 70 °F
N
0.0
Wind Variable Wind from West
Gusts 0.0 mph

Today
High -- | Low -- °F
--% Chance of Precip.
Yesterday
High -- | Low -- °F
Precip. -- in
6:18 AM 7:32 PM
Waxing Crescent, 6% visible
Pressure 30.08 in
Visibility 10.0 miles
Clouds Clear
Heat Index 70 °F
Dew Point 70 °F
Humidity 91%
Rainfall 0.02 in
Snow Depth Not available.
UV 0 out of 12
Pollen 10.40 out of 12
Air Quality Not available.
Flu Activity Not available.
METAR K1H2 280330Z AUTO 00000KT 10SM RA CLR 22/20 A3008 RMK AO2 T02220202

More Conditions Fewer Conditions

Pressure 30.08 in
Visibility 10.0 miles
Clouds Clear
Heat Index 70 °F
Dew Point 70 °F
Humidity 91%
Rainfall 0.02 in
Snow Depth Not available.
UV 0 out of 12
Pollen 10.40 out of 12
Air Quality Not available.
Flu Activity Not available.
METAR K1H2 280330Z AUTO 00000KT 10SM RA CLR 22/20 A3008 RMK AO2 T02220202

More Conditions Fewer Conditions

10-Day Weather Forecast

Almanac

Astronomy

Aug. 27, 2014 Rise Set
Actual Time 6:18 AM CDT 7:32 PM CDT
Civil Twilight 5:50 AM CDT 7:59 PM CDT
Nautical Twilight 5:17 AM CDT 8:32 PM CDT
Astronomical Twilight 4:43 AM CDT 9:07 PM CDT
Moon 8:13 AM CDT (8/27) 8:25 PM CDT (8/27)
Length of Visible Light 14h 09m
Length of Day
13h 13m
Tomorrow will be 2m 24s shorter.
Waxing Crescent, 6% of the Moon is Illuminated
Today
Waxing Crescent
Sep 2
First Quarter
Sep 8
Full
Sep 15
Last Quarter
Sep 24
New

Today's Extremes

State Highs State Lows

Community

WunderPhotos

Upload Photos

1,747,894 photos uploaded!

Nearby

Snow Depth

Station Depth Elevation
No new snow has been reported.

Earthquake Activity

City Distance Mag. Time & Date
No recent earthquake activity has been reported nearby.
Minimum magnitude displayed is 2.5.

Coastal Water Temperatures

Place Temperature
No Stations Reporting

Nearby Weather Stations